Terminal Aerodrome Forecast
Issued by NWS Sterling, VA

Current Version | Previous Version | Graphics & Text | Print | Product List | Glossary On
Versions: 1 2 3 4 5 6 7 8 9 10 11 12 13 14 15 16 17 18 19 20 21 22 23
000
FTUS41 KLWX 181100
TAFDCA
TAF
KDCA 181125Z 1812/1912 VRB03KT P6SM SCT035 BKN050
     FM182300 VRB03KT P6SM FEW035 SCT050
     FM191000 03006KT P6SM SCT090=

USA.gov is the U.S. government's official web portal to all federal, state and local government web resources and services.